sensor_id;sensor_type;location;lat;lon;timestamp;temperature;humidity
66119;DHT22;52912;48.564;9.302;2023-07-28T00:01:41;16.65;93.77
66119;DHT22;52912;48.564;9.302;2023-07-28T00:04:07;16.64;93.76
66119;DHT22;52912;48.564;9.302;2023-07-28T00:06:32;16.72;93.47
66119;DHT22;52912;48.564;9.302;2023-07-28T00:08:58;16.68;93.38
66119;DHT22;52912;48.564;9.302;2023-07-28T00:11:24;16.60;93.28
66119;DHT22;52912;48.564;9.302;2023-07-28T00:13:50;16.58;93.41
66119;DHT22;52912;48.564;9.302;2023-07-28T00:16:15;16.41;93.85
66119;DHT22;52912;48.564;9.302;2023-07-28T00:18:41;16.34;94.56
66119;DHT22;52912;48.564;9.302;2023-07-28T00:21:06;16.39;94.66
66119;DHT22;52912;48.564;9.302;2023-07-28T00:23:32;16.37;94.46
66119;DHT22;52912;48.564;9.302;2023-07-28T00:25:57;16.34;94.62
66119;DHT22;52912;48.564;9.302;2023-07-28T00:28:24;16.32;94.92
66119;DHT22;52912;48.564;9.302;2023-07-28T00:30:50;16.26;94.95
66119;DHT22;52912;48.564;9.302;2023-07-28T00:33:15;16.29;94.43
66119;DHT22;52912;48.564;9.302;2023-07-28T00:35:41;16.19;94.98
66119;DHT22;52912;48.564;9.302;2023-07-28T00:38:06;16.15;94.79
66119;DHT22;52912;48.564;9.302;2023-07-28T00:40:31;16.15;94.81
66119;DHT22;52912;48.564;9.302;2023-07-28T00:42:57;16.05;95.10
66119;DHT22;52912;48.564;9.302;2023-07-28T00:45:25;16.06;95.18
66119;DHT22;52912;48.564;9.302;2023-07-28T00:47:51;16.04;95.21
66119;DHT22;52912;48.564;9.302;2023-07-28T00:50:17;16.01;95.43
66119;DHT22;52912;48.564;9.302;2023-07-28T00:52:43;16.01;95.38
66119;DHT22;52912;48.564;9.302;2023-07-28T00:55:09;16.04;95.58
66119;DHT22;52912;48.564;9.302;2023-07-28T00:57:34;16.08;94.88
66119;DHT22;52912;48.564;9.302;2023-07-28T01:00:00;16.04;95.11
66119;DHT22;52912;48.564;9.302;2023-07-28T01:02:27;16.01;95.14
66119;DHT22;52912;48.564;9.302;2023-07-28T01:04:53;16.02;95.20
66119;DHT22;52912;48.564;9.302;2023-07-28T01:07:24;16.01;95.29
66119;DHT22;52912;48.564;9.302;2023-07-28T01:09:56;16.02;95.60
66119;DHT22;52912;48.564;9.302;2023-07-28T01:12:26;16.01;95.85
66119;DHT22;52912;48.564;9.302;2023-07-28T01:14:51;15.98;95.73
66119;DHT22;52912;48.564;9.302;2023-07-28T01:17:16;15.92;95.66
66119;DHT22;52912;48.564;9.302;2023-07-28T01:19:43;15.92;95.83
66119;DHT22;52912;48.564;9.302;2023-07-28T01:22:21;15.95;95.40
66119;DHT22;52912;48.564;9.302;2023-07-28T01:24:55;15.98;95.26
66119;DHT22;52912;48.564;9.302;2023-07-28T01:27:23;16.13;94.54
66119;DHT22;52912;48.564;9.302;2023-07-28T01:29:48;16.33;93.87
66119;DHT22;52912;48.564;9.302;2023-07-28T01:32:14;16.41;93.46
66119;DHT22;52912;48.564;9.302;2023-07-28T01:34:39;16.50;93.22
66119;DHT22;52912;48.564;9.302;2023-07-28T01:37:05;16.50;93.22
66119;DHT22;52912;48.564;9.302;2023-07-28T01:39:31;16.65;92.56
66119;DHT22;52912;48.564;9.302;2023-07-28T01:41:56;16.67;92.53
66119;DHT22;52912;48.564;9.302;2023-07-28T01:44:23;16.61;92.86
66119;DHT22;52912;48.564;9.302;2023-07-28T01:46:48;16.57;92.97
66119;DHT22;52912;48.564;9.302;2023-07-28T01:49:14;16.53;93.78
66119;DHT22;52912;48.564;9.302;2023-07-28T01:51:39;16.44;94.20
66119;DHT22;52912;48.564;9.302;2023-07-28T01:54:05;16.24;95.07
66119;DHT22;52912;48.564;9.302;2023-07-28T01:56:30;16.23;94.16
66119;DHT22;52912;48.564;9.302;2023-07-28T01:58:55;16.20;94.09
66119;DHT22;52912;48.564;9.302;2023-07-28T02:01:22;16.05;94.43
66119;DHT22;52912;48.564;9.302;2023-07-28T02:03:48;16.06;94.12
66119;DHT22;52912;48.564;9.302;2023-07-28T02:06:13;16.04;94.12
66119;DHT22;52912;48.564;9.302;2023-07-28T02:08:38;15.99;94.56
66119;DHT22;52912;48.564;9.302;2023-07-28T02:11:04;15.79;95.15
66119;DHT22;52912;48.564;9.302;2023-07-28T02:13:29;15.82;95.05
66119;DHT22;52912;48.564;9.302;2023-07-28T02:15:55;15.79;95.15
66119;DHT22;52912;48.564;9.302;2023-07-28T02:18:22;15.77;95.33
66119;DHT22;52912;48.564;9.302;2023-07-28T02:20:47;15.77;95.43
66119;DHT22;52912;48.564;9.302;2023-07-28T02:23:13;15.84;95.20
66119;DHT22;52912;48.564;9.302;2023-07-28T02:25:38;15.79;95.30
66119;DHT22;52912;48.564;9.302;2023-07-28T02:28:04;15.77;95.51
66119;DHT22;52912;48.564;9.302;2023-07-28T02:30:29;15.72;95.74
66119;DHT22;52912;48.564;9.302;2023-07-28T02:32:55;15.61;95.91
66119;DHT22;52912;48.564;9.302;2023-07-28T02:35:21;15.44;96.67
66119;DHT22;52912;48.564;9.302;2023-07-28T02:37:47;15.49;96.42
66119;DHT22;52912;48.564;9.302;2023-07-28T02:40:12;15.39;96.69
66119;DHT22;52912;48.564;9.302;2023-07-28T02:42:38;15.39;96.71
66119;DHT22;52912;48.564;9.302;2023-07-28T02:45:04;15.36;96.70
66119;DHT22;52912;48.564;9.302;2023-07-28T02:47:29;15.15;96.90
66119;DHT22;52912;48.564;9.302;2023-07-28T02:49:55;15.18;97.08
66119;DHT22;52912;48.564;9.302;2023-07-28T02:52:22;15.20;96.75
66119;DHT22;52912;48.564;9.302;2023-07-28T02:54:47;15.19;96.66
66119;DHT22;52912;48.564;9.302;2023-07-28T02:57:12;15.22;96.84
66119;DHT22;52912;48.564;9.302;2023-07-28T02:59:38;15.19;97.03
66119;DHT22;52912;48.564;9.302;2023-07-28T03:02:04;15.16;97.10
66119;DHT22;52912;48.564;9.302;2023-07-28T03:04:29;15.18;96.98
66119;DHT22;52912;48.564;9.302;2023-07-28T03:06:55;15.25;96.71
66119;DHT22;52912;48.564;9.302;2023-07-28T03:09:21;15.23;96.46
66119;DHT22;52912;48.564;9.302;2023-07-28T03:11:47;15.18;96.50
66119;DHT22;52912;48.564;9.302;2023-07-28T03:14:12;15.13;96.56
66119;DHT22;52912;48.564;9.302;2023-07-28T03:16:38;15.18;96.77
66119;DHT22;52912;48.564;9.302;2023-07-28T03:19:04;15.12;97.36
66119;DHT22;52912;48.564;9.302;2023-07-28T03:21:30;15.13;97.39
66119;DHT22;52912;48.564;9.302;2023-07-28T03:23:55;15.18;97.34
66119;DHT22;52912;48.564;9.302;2023-07-28T03:26:22;15.12;97.61
66119;DHT22;52912;48.564;9.302;2023-07-28T03:28:48;15.22;97.09
66119;DHT22;52912;48.564;9.302;2023-07-28T03:31:13;15.20;97.04
66119;DHT22;52912;48.564;9.302;2023-07-28T03:33:39;15.23;97.10
66119;DHT22;52912;48.564;9.302;2023-07-28T03:36:04;15.23;96.83
66119;DHT22;52912;48.564;9.302;2023-07-28T03:38:30;15.33;96.71
66119;DHT22;52912;48.564;9.302;2023-07-28T03:40:55;15.25;96.98
66119;DHT22;52912;48.564;9.302;2023-07-28T03:43:22;15.23;96.99
66119;DHT22;52912;48.564;9.302;2023-07-28T03:45:47;15.23;97.25
66119;DHT22;52912;48.564;9.302;2023-07-28T03:48:13;15.26;97.20
66119;DHT22;52912;48.564;9.302;2023-07-28T03:50:38;15.16;97.12
66119;DHT22;52912;48.564;9.302;2023-07-28T03:53:04;15.22;96.80
66119;DHT22;52912;48.564;9.302;2023-07-28T03:55:29;15.20;96.67
66119;DHT22;52912;48.564;9.302;2023-07-28T03:57:55;15.19;96.85
66119;DHT22;52912;48.564;9.302;2023-07-28T04:00:22;15.20;96.94
66119;DHT22;52912;48.564;9.302;2023-07-28T04:02:47;15.20;97.01
66119;DHT22;52912;48.564;9.302;2023-07-28T04:05:12;15.20;97.32
66119;DHT22;52912;48.564;9.302;2023-07-28T04:07:38;15.18;97.47
66119;DHT22;52912;48.564;9.302;2023-07-28T04:10:04;15.19;97.65
66119;DHT22;52912;48.564;9.302;2023-07-28T04:12:30;15.29;97.34
66119;DHT22;52912;48.564;9.302;2023-07-28T04:14:55;15.33;97.19
66119;DHT22;52912;48.564;9.302;2023-07-28T04:17:22;15.37;97.10
66119;DHT22;52912;48.564;9.302;2023-07-28T04:19:48;15.40;96.80
66119;DHT22;52912;48.564;9.302;2023-07-28T04:22:13;15.44;96.72
66119;DHT22;52912;48.564;9.302;2023-07-28T04:24:38;15.40;97.03
66119;DHT22;52912;48.564;9.302;2023-07-28T04:27:05;15.42;97.18
66119;DHT22;52912;48.564;9.302;2023-07-28T04:29:30;15.49;97.07
66119;DHT22;52912;48.564;9.302;2023-07-28T04:31:56;15.50;97.14
66119;DHT22;52912;48.564;9.302;2023-07-28T04:34:23;15.51;97.12
66119;DHT22;52912;48.564;9.302;2023-07-28T04:36:48;15.58;97.16
66119;DHT22;52912;48.564;9.302;2023-07-28T04:39:13;15.67;96.81
66119;DHT22;52912;48.564;9.302;2023-07-28T04:41:39;15.65;96.88
66119;DHT22;52912;48.564;9.302;2023-07-28T04:44:04;15.75;96.93
66119;DHT22;52912;48.564;9.302;2023-07-28T04:46:30;15.82;96.86
66119;DHT22;52912;48.564;9.302;2023-07-28T04:48:56;15.92;96.77
66119;DHT22;52912;48.564;9.302;2023-07-28T04:51:23;15.94;96.85
66119;DHT22;52912;48.564;9.302;2023-07-28T04:53:48;15.92;97.14
66119;DHT22;52912;48.564;9.302;2023-07-28T04:56:14;15.95;96.92
66119;DHT22;52912;48.564;9.302;2023-07-28T04:58:39;15.87;97.10
66119;DHT22;52912;48.564;9.302;2023-07-28T05:01:05;15.91;97.00
66119;DHT22;52912;48.564;9.302;2023-07-28T05:03:30;15.92;97.51
66119;DHT22;52912;48.564;9.302;2023-07-28T05:05:55;15.94;97.78
66119;DHT22;52912;48.564;9.302;2023-07-28T05:08:22;15.95;97.30
66119;DHT22;52912;48.564;9.302;2023-07-28T05:10:48;15.99;97.09
66119;DHT22;52912;48.564;9.302;2023-07-28T05:13:13;16.02;97.05
66119;DHT22;52912;48.564;9.302;2023-07-28T05:15:39;16.08;97.11
66119;DHT22;52912;48.564;9.302;2023-07-28T05:18:04;16.17;96.54
66119;DHT22;52912;48.564;9.302;2023-07-28T05:20:29;16.23;96.24
66119;DHT22;52912;48.564;9.302;2023-07-28T05:22:55;16.27;96.06
66119;DHT22;52912;48.564;9.302;2023-07-28T05:27:49;16.32;96.19
66119;DHT22;52912;48.564;9.302;2023-07-28T05:30:15;16.36;95.89
66119;DHT22;52912;48.564;9.302;2023-07-28T05:32:40;16.39;95.94
66119;DHT22;52912;48.564;9.302;2023-07-28T05:35:06;16.40;96.01
66119;DHT22;52912;48.564;9.302;2023-07-28T05:37:32;16.36;96.33
66119;DHT22;52912;48.564;9.302;2023-07-28T05:39:57;16.37;96.69
66119;DHT22;52912;48.564;9.302;2023-07-28T05:42:23;16.34;96.38
66119;DHT22;52912;48.564;9.302;2023-07-28T05:44:49;16.36;96.28
66119;DHT22;52912;48.564;9.302;2023-07-28T05:47:15;16.37;96.37
66119;DHT22;52912;48.564;9.302;2023-07-28T05:49:40;16.41;96.59
66119;DHT22;52912;48.564;9.302;2023-07-28T05:52:06;16.50;95.96
66119;DHT22;52912;48.564;9.302;2023-07-28T05:54:32;16.60;95.81
66119;DHT22;52912;48.564;9.302;2023-07-28T05:56:57;16.69;95.71
66119;DHT22;52912;48.564;9.302;2023-07-28T05:59:23;16.71;95.58
66119;DHT22;52912;48.564;9.302;2023-07-28T06:01:49;16.79;95.62
66119;DHT22;52912;48.564;9.302;2023-07-28T06:04:15;16.85;96.06
66119;DHT22;52912;48.564;9.302;2023-07-28T06:06:40;16.95;96.14
66119;DHT22;52912;48.564;9.302;2023-07-28T06:09:06;17.02;95.64
66119;DHT22;52912;48.564;9.302;2023-07-28T06:11:31;17.05;96.80
66119;DHT22;52912;48.564;9.302;2023-07-28T06:13:57;17.12;96.68
66119;DHT22;52912;48.564;9.302;2023-07-28T06:16:22;17.08;96.33
66119;DHT22;52912;48.564;9.302;2023-07-28T06:18:49;17.16;96.24
66119;DHT22;52912;48.564;9.302;2023-07-28T06:21:14;17.16;97.12
66119;DHT22;52912;48.564;9.302;2023-07-28T06:23:40;17.20;96.90
66119;DHT22;52912;48.564;9.302;2023-07-28T06:26:05;17.26;96.84
66119;DHT22;52912;48.564;9.302;2023-07-28T06:28:30;17.36;96.11
66119;DHT22;52912;48.564;9.302;2023-07-28T06:30:57;17.39;95.80
66119;DHT22;52912;48.564;9.302;2023-07-28T06:33:22;17.39;95.50
66119;DHT22;52912;48.564;9.302;2023-07-28T06:35:49;17.43;95.53
66119;DHT22;52912;48.564;9.302;2023-07-28T06:38:14;17.46;95.65
66119;DHT22;52912;48.564;9.302;2023-07-28T06:40:40;17.46;95.49
66119;DHT22;52912;48.564;9.302;2023-07-28T06:43:05;17.53;96.12
66119;DHT22;52912;48.564;9.302;2023-07-28T06:45:31;17.54;95.67
66119;DHT22;52912;48.564;9.302;2023-07-28T06:47:56;17.66;95.39
66119;DHT22;52912;48.564;9.302;2023-07-28T06:50:22;17.74;95.01
66119;DHT22;52912;48.564;9.302;2023-07-28T06:52:48;17.74;94.68
66119;DHT22;52912;48.564;9.302;2023-07-28T06:55:14;17.86;94.56
66119;DHT22;52912;48.564;9.302;2023-07-28T06:57:39;17.94;93.69
66119;DHT22;52912;48.564;9.302;2023-07-28T07:00:06;17.92;93.83
66119;DHT22;52912;48.564;9.302;2023-07-28T07:02:32;17.92;94.07
66119;DHT22;52912;48.564;9.302;2023-07-28T07:04:57;18.01;93.83
66119;DHT22;52912;48.564;9.302;2023-07-28T07:07:23;18.08;93.92
66119;DHT22;52912;48.564;9.302;2023-07-28T07:09:49;18.16;93.39
66119;DHT22;52912;48.564;9.302;2023-07-28T07:12:15;18.17;93.61
66119;DHT22;52912;48.564;9.302;2023-07-28T07:14:40;18.20;93.62
66119;DHT22;52912;48.564;9.302;2023-07-28T07:17:06;18.20;93.53
66119;DHT22;52912;48.564;9.302;2023-07-28T07:19:32;18.26;92.97
66119;DHT22;52912;48.564;9.302;2023-07-28T07:21:57;18.33;92.81
66119;DHT22;52912;48.564;9.302;2023-07-28T07:24:23;18.40;93.03
66119;DHT22;52912;48.564;9.302;2023-07-28T07:26:49;18.50;92.50
66119;DHT22;52912;48.564;9.302;2023-07-28T07:29:15;18.48;92.32
66119;DHT22;52912;48.564;9.302;2023-07-28T07:31:40;18.48;92.49
66119;DHT22;52912;48.564;9.302;2023-07-28T07:34:06;18.60;92.52
66119;DHT22;52912;48.564;9.302;2023-07-28T07:36:31;18.57;91.72
66119;DHT22;52912;48.564;9.302;2023-07-28T07:38:57;18.74;92.09
66119;DHT22;52912;48.564;9.302;2023-07-28T07:41:23;18.84;91.89
66119;DHT22;52912;48.564;9.302;2023-07-28T07:43:52;18.94;91.61
66119;DHT22;52912;48.564;9.302;2023-07-28T07:46:18;19.06;90.35
66119;DHT22;52912;48.564;9.302;2023-07-28T07:48:43;19.03;90.94
66119;DHT22;52912;48.564;9.302;2023-07-28T07:51:09;19.01;90.34
66119;DHT22;52912;48.564;9.302;2023-07-28T07:53:34;19.09;90.29
66119;DHT22;52912;48.564;9.302;2023-07-28T07:56:01;19.09;89.93
66119;DHT22;52912;48.564;9.302;2023-07-28T07:58:26;19.01;90.42
66119;DHT22;52912;48.564;9.302;2023-07-28T08:00:53;18.98;90.50
66119;DHT22;52912;48.564;9.302;2023-07-28T08:03:18;18.91;90.87
66119;DHT22;52912;48.564;9.302;2023-07-28T08:05:44;18.94;90.76
66119;DHT22;52912;48.564;9.302;2023-07-28T08:08:09;19.02;90.72
66119;DHT22;52912;48.564;9.302;2023-07-28T08:10:35;18.99;90.93
66119;DHT22;52912;48.564;9.302;2023-07-28T08:13:00;19.05;91.23
66119;DHT22;52912;48.564;9.302;2023-07-28T08:15:26;19.06;91.11
66119;DHT22;52912;48.564;9.302;2023-07-28T08:17:52;19.13;90.80
66119;DHT22;52912;48.564;9.302;2023-07-28T08:20:18;19.30;90.67
66119;DHT22;52912;48.564;9.302;2023-07-28T08:22:43;19.53;90.22
66119;DHT22;52912;48.564;9.302;2023-07-28T08:25:09;19.81;89.44
66119;DHT22;52912;48.564;9.302;2023-07-28T08:27:34;20.17;87.75
66119;DHT22;52912;48.564;9.302;2023-07-28T08:30:00;20.39;86.74
66119;DHT22;52912;48.564;9.302;2023-07-28T08:32:25;20.75;86.17
66119;DHT22;52912;48.564;9.302;2023-07-28T08:34:52;20.88;85.19
66119;DHT22;52912;48.564;9.302;2023-07-28T08:37:18;21.18;85.02
66119;DHT22;52912;48.564;9.302;2023-07-28T08:39:43;21.33;84.40
66119;DHT22;52912;48.564;9.302;2023-07-28T08:42:09;21.41;84.68
66119;DHT22;52912;48.564;9.302;2023-07-28T08:44:34;21.27;83.92
66119;DHT22;52912;48.564;9.302;2023-07-28T08:47:01;21.43;83.05
66119;DHT22;52912;48.564;9.302;2023-07-28T08:49:26;21.53;83.09
66119;DHT22;52912;48.564;9.302;2023-07-28T08:51:58;21.57;82.94
66119;DHT22;52912;48.564;9.302;2023-07-28T08:54:23;21.55;83.09
66119;DHT22;52912;48.564;9.302;2023-07-28T08:56:49;21.65;83.37
66119;DHT22;52912;48.564;9.302;2023-07-28T08:59:20;21.84;82.46
66119;DHT22;52912;48.564;9.302;2023-07-28T09:01:46;22.02;81.62
66119;DHT22;52912;48.564;9.302;2023-07-28T09:04:11;22.22;81.39
66119;DHT22;52912;48.564;9.302;2023-07-28T09:06:37;22.36;81.63
66119;DHT22;52912;48.564;9.302;2023-07-28T09:09:07;22.68;80.70
66119;DHT22;52912;48.564;9.302;2023-07-28T09:11:32;22.72;80.05
66119;DHT22;52912;48.564;9.302;2023-07-28T09:14:00;22.82;80.04
66119;DHT22;52912;48.564;9.302;2023-07-28T09:16:25;22.79;79.54
66119;DHT22;52912;48.564;9.302;2023-07-28T09:18:51;23.34;78.75
66119;DHT22;52912;48.564;9.302;2023-07-28T09:21:17;23.63;77.30
66119;DHT22;52912;48.564;9.302;2023-07-28T09:23:44;23.54;77.87
66119;DHT22;52912;48.564;9.302;2023-07-28T09:26:10;23.46;78.55
66119;DHT22;52912;48.564;9.302;2023-07-28T09:28:37;23.74;76.89
66119;DHT22;52912;48.564;9.302;2023-07-28T09:31:03;23.49;77.22
66119;DHT22;52912;48.564;9.302;2023-07-28T09:33:30;23.91;76.01
66119;DHT22;52912;48.564;9.302;2023-07-28T09:35:55;23.94;76.78
66119;DHT22;52912;48.564;9.302;2023-07-28T09:38:22;23.55;77.57
66119;DHT22;52912;48.564;9.302;2023-07-28T09:40:48;23.19;77.15
66119;DHT22;52912;48.564;9.302;2023-07-28T09:43:15;23.24;77.10
66119;DHT22;52912;48.564;9.302;2023-07-28T09:45:42;23.30;77.41
66119;DHT22;52912;48.564;9.302;2023-07-28T09:48:09;23.51;77.23
66119;DHT22;52912;48.564;9.302;2023-07-28T09:50:37;23.61;77.43
66119;DHT22;52912;48.564;9.302;2023-07-28T09:53:03;23.97;76.71
66119;DHT22;52912;48.564;9.302;2023-07-28T09:55:29;24.12;75.52
66119;DHT22;52912;48.564;9.302;2023-07-28T09:57:57;24.43;75.34
66119;DHT22;52912;48.564;9.302;2023-07-28T10:00:25;24.49;74.64
66119;DHT22;52912;48.564;9.302;2023-07-28T10:02:52;24.30;73.72
66119;DHT22;52912;48.564;9.302;2023-07-28T10:05:18;24.34;73.75
66119;DHT22;52912;48.564;9.302;2023-07-28T10:07:45;24.33;75.02
66119;DHT22;52912;48.564;9.302;2023-07-28T10:10:11;24.74;73.24
66119;DHT22;52912;48.564;9.302;2023-07-28T10:12:40;24.95;71.61
66119;DHT22;52912;48.564;9.302;2023-07-28T10:15:06;25.27;70.79
66119;DHT22;52912;48.564;9.302;2023-07-28T10:17:34;25.22;71.46
66119;DHT22;52912;48.564;9.302;2023-07-28T10:20:01;25.34;72.62
66119;DHT22;52912;48.564;9.302;2023-07-28T10:22:27;25.23;72.72
66119;DHT22;52912;48.564;9.302;2023-07-28T10:24:53;24.92;72.59
66119;DHT22;52912;48.564;9.302;2023-07-28T10:27:33;24.67;72.75
66119;DHT22;52912;48.564;9.302;2023-07-28T10:30:01;24.75;73.03
66119;DHT22;52912;48.564;9.302;2023-07-28T10:32:28;24.74;73.08
66119;DHT22;52912;48.564;9.302;2023-07-28T10:35:00;24.95;73.45
66119;DHT22;52912;48.564;9.302;2023-07-28T10:37:25;25.11;72.52
66119;DHT22;52912;48.564;9.302;2023-07-28T10:40:22;24.94;72.18
66119;DHT22;52912;48.564;9.302;2023-07-28T10:42:47;24.96;72.75
66119;DHT22;52912;48.564;9.302;2023-07-28T10:45:13;24.72;72.66
66119;DHT22;52912;48.564;9.302;2023-07-28T10:47:39;24.68;72.92
66119;DHT22;52912;48.564;9.302;2023-07-28T10:50:08;24.89;71.84
66119;DHT22;52912;48.564;9.302;2023-07-28T10:52:34;24.89;71.43
66119;DHT22;52912;48.564;9.302;2023-07-28T10:54:59;25.02;71.72
66119;DHT22;52912;48.564;9.302;2023-07-28T10:57:25;25.01;71.30
66119;DHT22;52912;48.564;9.302;2023-07-28T10:59:51;24.89;71.74
66119;DHT22;52912;48.564;9.302;2023-07-28T11:02:16;25.08;71.64
66119;DHT22;52912;48.564;9.302;2023-07-28T11:04:46;25.02;72.69
66119;DHT22;52912;48.564;9.302;2023-07-28T11:07:13;25.22;71.93
66119;DHT22;52912;48.564;9.302;2023-07-28T11:09:38;25.26;71.52
66119;DHT22;52912;48.564;9.302;2023-07-28T11:12:05;25.15;70.98
66119;DHT22;52912;48.564;9.302;2023-07-28T11:14:33;25.30;72.28
66119;DHT22;52912;48.564;9.302;2023-07-28T11:16:59;25.23;71.90
66119;DHT22;52912;48.564;9.302;2023-07-28T11:19:25;25.54;70.79
66119;DHT22;52912;48.564;9.302;2023-07-28T11:21:51;25.49;70.49
66119;DHT22;52912;48.564;9.302;2023-07-28T11:24:19;25.54;70.96
66119;DHT22;52912;48.564;9.302;2023-07-28T11:26:45;25.40;71.47
66119;DHT22;52912;48.564;9.302;2023-07-28T11:29:10;25.37;71.27
66119;DHT22;52912;48.564;9.302;2023-07-28T11:31:36;24.98;72.13
66119;DHT22;52912;48.564;9.302;2023-07-28T11:34:01;24.81;71.71
66119;DHT22;52912;48.564;9.302;2023-07-28T11:36:28;24.50;72.33
66119;DHT22;52912;48.564;9.302;2023-07-28T11:38:54;24.47;73.39
66119;DHT22;52912;48.564;9.302;2023-07-28T11:41:22;24.43;73.91
66119;DHT22;52912;48.564;9.302;2023-07-28T11:43:48;23.94;77.18
66119;DHT22;52912;48.564;9.302;2023-07-28T11:46:33;23.40;78.65
66119;DHT22;52912;48.564;9.302;2023-07-28T11:49:07;23.09;79.03
66119;DHT22;52912;48.564;9.302;2023-07-28T11:51:37;22.76;76.31
66119;DHT22;52912;48.564;9.302;2023-07-28T11:54:02;22.65;78.08
66119;DHT22;52912;48.564;9.302;2023-07-28T11:56:29;22.75;79.37
66119;DHT22;52912;48.564;9.302;2023-07-28T11:58:55;22.65;79.19
66119;DHT22;52912;48.564;9.302;2023-07-28T12:01:20;22.46;79.17
66119;DHT22;52912;48.564;9.302;2023-07-28T12:03:46;22.56;80.82
66119;DHT22;52912;48.564;9.302;2023-07-28T12:06:11;22.41;79.75
66119;DHT22;52912;48.564;9.302;2023-07-28T12:08:37;22.43;80.24
66119;DHT22;52912;48.564;9.302;2023-07-28T12:11:03;22.43;81.06
66119;DHT22;52912;48.564;9.302;2023-07-28T12:13:30;22.46;79.56
66119;DHT22;52912;48.564;9.302;2023-07-28T12:15:55;22.37;80.17
66119;DHT22;52912;48.564;9.302;2023-07-28T12:18:21;22.46;81.61
66119;DHT22;52912;48.564;9.302;2023-07-28T12:20:47;22.48;81.15
66119;DHT22;52912;48.564;9.302;2023-07-28T12:23:13;22.51;81.11
66119;DHT22;52912;48.564;9.302;2023-07-28T12:25:39;22.60;80.81
66119;DHT22;52912;48.564;9.302;2023-07-28T12:28:05;22.64;79.33
66119;DHT22;52912;48.564;9.302;2023-07-28T12:30:32;22.58;83.25
66119;DHT22;52912;48.564;9.302;2023-07-28T12:32:57;22.57;83.59
66119;DHT22;52912;48.564;9.302;2023-07-28T12:35:23;22.26;81.98
66119;DHT22;52912;48.564;9.302;2023-07-28T12:37:49;22.23;82.35
66119;DHT22;52912;48.564;9.302;2023-07-28T12:40:15;22.36;80.44
66119;DHT22;52912;48.564;9.302;2023-07-28T12:42:40;22.46;80.83
66119;DHT22;52912;48.564;9.302;2023-07-28T12:45:07;22.63;79.87
66119;DHT22;52912;48.564;9.302;2023-07-28T12:47:34;22.43;81.18
66119;DHT22;52912;48.564;9.302;2023-07-28T12:49:59;22.50;82.17
66119;DHT22;52912;48.564;9.302;2023-07-28T12:52:25;22.54;82.46
66119;DHT22;52912;48.564;9.302;2023-07-28T12:54:50;22.47;82.68
66119;DHT22;52912;48.564;9.302;2023-07-28T12:57:16;22.35;79.62
66119;DHT22;52912;48.564;9.302;2023-07-28T12:59:41;22.53;80.54
66119;DHT22;52912;48.564;9.302;2023-07-28T13:02:06;22.74;81.16
66119;DHT22;52912;48.564;9.302;2023-07-28T13:04:33;22.81;80.40
66119;DHT22;52912;48.564;9.302;2023-07-28T13:06:59;22.84;81.83
66119;DHT22;52912;48.564;9.302;2023-07-28T13:09:24;22.96;80.36
66119;DHT22;52912;48.564;9.302;2023-07-28T13:11:50;23.13;78.22
66119;DHT22;52912;48.564;9.302;2023-07-28T13:14:15;23.26;81.85
66119;DHT22;52912;48.564;9.302;2023-07-28T13:16:40;23.47;81.07
66119;DHT22;52912;48.564;9.302;2023-07-28T13:19:06;23.50;77.39
66119;DHT22;52912;48.564;9.302;2023-07-28T13:21:33;23.51;76.33
66119;DHT22;52912;48.564;9.302;2023-07-28T13:23:58;23.44;76.76
66119;DHT22;52912;48.564;9.302;2023-07-28T13:26:24;23.50;76.56
66119;DHT22;52912;48.564;9.302;2023-07-28T13:28:49;23.40;78.28
66119;DHT22;52912;48.564;9.302;2023-07-28T13:31:15;23.29;77.98
66119;DHT22;52912;48.564;9.302;2023-07-28T13:33:41;23.31;79.33
66119;DHT22;52912;48.564;9.302;2023-07-28T13:36:06;23.47;79.97
66119;DHT22;52912;48.564;9.302;2023-07-28T13:38:34;23.23;80.44
66119;DHT22;52912;48.564;9.302;2023-07-28T13:40:59;23.08;81.01
66119;DHT22;52912;48.564;9.302;2023-07-28T13:43:25;22.91;81.55
66119;DHT22;52912;48.564;9.302;2023-07-28T13:45:50;22.96;82.02
66119;DHT22;52912;48.564;9.302;2023-07-28T13:48:16;22.67;81.57
66119;DHT22;52912;48.564;9.302;2023-07-28T13:50:41;22.82;81.00
66119;DHT22;52912;48.564;9.302;2023-07-28T13:53:06;22.54;83.19
66119;DHT22;52912;48.564;9.302;2023-07-28T13:55:33;22.47;84.19
66119;DHT22;52912;48.564;9.302;2023-07-28T13:57:59;22.05;83.15
66119;DHT22;52912;48.564;9.302;2023-07-28T14:00:24;21.99;80.10
66119;DHT22;52912;48.564;9.302;2023-07-28T14:02:50;22.13;82.15
66119;DHT22;52912;48.564;9.302;2023-07-28T14:05:15;21.96;80.98
66119;DHT22;52912;48.564;9.302;2023-07-28T14:07:41;21.91;80.60
66119;DHT22;52912;48.564;9.302;2023-07-28T14:10:06;22.05;80.86
66119;DHT22;52912;48.564;9.302;2023-07-28T14:12:33;21.98;79.96
66119;DHT22;52912;48.564;9.302;2023-07-28T14:14:59;21.86;80.33
66119;DHT22;52912;48.564;9.302;2023-07-28T14:17:24;21.82;80.16
66119;DHT22;52912;48.564;9.302;2023-07-28T14:19:50;21.89;81.50
66119;DHT22;52912;48.564;9.302;2023-07-28T14:22:15;21.98;81.35
66119;DHT22;52912;48.564;9.302;2023-07-28T14:24:40;22.05;81.32
66119;DHT22;52912;48.564;9.302;2023-07-28T14:27:06;22.03;80.33
66119;DHT22;52912;48.564;9.302;2023-07-28T14:29:33;22.14;82.24
66119;DHT22;52912;48.564;9.302;2023-07-28T14:31:58;22.16;82.12
66119;DHT22;52912;48.564;9.302;2023-07-28T14:34:24;22.19;82.75
66119;DHT22;52912;48.564;9.302;2023-07-28T14:36:49;22.13;83.70
66119;DHT22;52912;48.564;9.302;2023-07-28T14:39:15;22.10;81.15
66119;DHT22;52912;48.564;9.302;2023-07-28T14:41:40;22.13;81.99
66119;DHT22;52912;48.564;9.302;2023-07-28T14:44:05;22.17;81.72
66119;DHT22;52912;48.564;9.302;2023-07-28T14:46:32;22.35;81.17
66119;DHT22;52912;48.564;9.302;2023-07-28T14:48:58;22.24;81.26
66119;DHT22;52912;48.564;9.302;2023-07-28T14:51:23;22.22;79.50
66119;DHT22;52912;48.564;9.302;2023-07-28T14:53:49;22.40;80.51
66119;DHT22;52912;48.564;9.302;2023-07-28T14:56:15;22.57;79.59
66119;DHT22;52912;48.564;9.302;2023-07-28T14:58:41;22.81;77.82
66119;DHT22;52912;48.564;9.302;2023-07-28T15:01:07;23.22;77.44
66119;DHT22;52912;48.564;9.302;2023-07-28T15:03:34;23.42;77.02
66119;DHT22;52912;48.564;9.302;2023-07-28T15:06:01;23.51;76.52
66119;DHT22;52912;48.564;9.302;2023-07-28T15:08:26;23.24;76.90
66119;DHT22;52912;48.564;9.302;2023-07-28T15:10:52;23.50;77.84
66119;DHT22;52912;48.564;9.302;2023-07-28T15:13:18;23.64;77.51
66119;DHT22;52912;48.564;9.302;2023-07-28T15:15:43;23.50;78.13
66119;DHT22;52912;48.564;9.302;2023-07-28T15:18:09;23.37;78.46
66119;DHT22;52912;48.564;9.302;2023-07-28T15:20:36;23.44;78.88
66119;DHT22;52912;48.564;9.302;2023-07-28T15:23:02;23.37;79.05
66119;DHT22;52912;48.564;9.302;2023-07-28T15:25:27;23.54;79.81